Latest Weather Observations for Maningrida Airport

IDD60801

Issued at 11:35 am CST Saturday 30 August 2014 (issued every 30 minutes, with the page automatically refreshed every 10 minutes)

About weather observations | Map of weather stations | Latest weather observations for NT | Other Formats
Station Details ID: 014405 Name: MANINGRIDA AIRPORT Lat: -12.06 Lon: 134.23 Height: 28.1 m
Data from the previous 72 hours. | See also: Recent months at Maningrida Airport
Date/Time
CST
Temp
°C
App
Temp
°C
Dew
Point
Rel
Hum
%
Delta-T
°C
Wind Press
QNH
hPa
Press
MSL
hPa
Rain
since 9 am
mm
Dir
 
Spd
km/h
Gust
km/h
Spd
kts
Gust
kts
30/11:30am 30.3 26.0 6.9 23 12.6 SSE 19 28 10 15 1014.3 - 0.0
30/11:00am 29.9 26.3 8.3 26 11.9 SE 17 28 9 15 1014.8 - 0.0
30/10:30am 29.0 25.0 8.1 27 11.4 SE 19 28 10 15 1015.1 - 0.0
30/10:00am 27.4 24.9 11.0 36 9.3 ESE 15 24 8 13 1015.5 - 0.0
30/09:30am 25.4 23.9 14.2 50 6.6 SE 15 20 8 11 1015.5 - 0.0
30/09:00am 23.9 24.0 16.4 63 4.6 SSE 11 17 6 9 1015.5 1015.4 0.0
30/08:30am 21.2 21.2 16.2 73 3.0 S 11 15 6 8 1015.5 - 0.0
30/08:00am 19.1 19.3 14.6 75 2.6 S 7 11 4 6 1015.2 - 0.0
30/07:30am 17.1 17.0 13.8 81 1.9 S 7 11 4 6 1014.8 - 0.0
30/07:00am 15.6 14.8 12.9 84 1.5 S 9 11 5 6 1014.6 - 0.0
30/06:30am 15.7 14.9 13.0 84 1.5 S 9 13 5 7 1014.2 - 0.0
30/06:00am 16.1 15.7 14.1 88 1.1 S 9 13 5 7 1013.8 1013.7 0.0
30/05:30am 14.9 14.7 12.9 88 1.1 S 6 7 3 4 1013.5 - 0.0
30/05:00am 15.3 14.8 12.6 84 1.5 S 7 9 4 5 1013.2 - 0.0
30/04:30am 15.4 14.5 12.7 84 1.5 S 9 11 5 6 1013.3 - 0.0
30/04:00am 15.0 14.4 12.3 84 1.5 S 7 9 4 5 1013.3 - 0.0
30/03:31am 15.4 15.0 13.1 86 1.3 SSE 7 7 4 4 1013.2 - 0.0
30/03:30am 15.4 15.0 12.9 85 1.4 SE 7 7 4 4 1013.2 - 0.0
30/03:13am 15.7 15.6 13.4 86 1.3 SE 6 6 3 3 1013.3 - 0.0
30/03:00am 15.9 15.9 13.6 86 1.3 SE 6 6 3 3 1013.4 1013.3 0.0
30/02:30am 16.6 16.8 14.2 86 1.4 SE 6 7 3 4 1013.5 - 0.0
30/02:00am 17.0 17.5 15.0 88 1.2 ESE 6 7 3 4 1013.7 - 0.0
30/01:43am 17.4 19.0 15.0 86 1.4 CALM 0 0 0 0 1013.8 - 0.0
30/01:30am 17.6 19.3 15.2 86 1.4 CALM 0 0 0 0 1013.9 - 0.0
30/01:00am 18.4 20.1 15.3 82 1.8 CALM 0 0 0 0 1013.9 - 0.0
30/12:30am 19.5 21.4 15.8 79 2.2 CALM 0 2 0 1 1013.9 - 0.0
30/12:00am 20.5 21.4 16.1 76 2.6 ESE 6 7 3 4 1014.1 1014.0 0.0
 
Date/Time
CST
Temp
°C
App
Temp
°C
Dew
Point
Rel
Hum
%
Delta-T
°C
Wind Press
QNH
hPa
Press
MSL
hPa
Rain
since 9 am
mm
Dir
 
Spd
km/h
Gust
km/h
Spd
kts
Gust
kts
29/11:30pm 21.3 22.1 16.3 73 3.0 ESE 7 11 4 6 1014.2 - 0.0
29/11:00pm 21.7 22.5 17.3 76 2.7 ESE 9 11 5 6 1014.2 - 0.0
29/10:30pm 21.6 22.8 17.4 77 2.6 ESE 7 9 4 5 1013.9 - 0.0
29/10:00pm 21.3 22.3 17.7 80 2.2 SE 9 11 5 6 1013.8 - 0.0
29/09:30pm 22.0 23.3 18.4 80 2.3 ESE 9 11 5 6 1013.6 - 0.0
29/09:10pm 22.1 23.8 18.5 80 2.3 E 7 11 4 6 1013.4 - 0.0
29/09:00pm 22.2 23.5 18.4 79 2.4 ESE 9 11 5 6 1013.3 1013.2 0.0
29/08:30pm 22.5 24.0 18.1 76 2.7 E 7 9 4 5 1013.0 - 0.0
29/08:00pm 23.0 24.3 17.5 71 3.4 E 7 9 4 5 1013.0 - 0.0
29/07:30pm 23.5 24.4 16.5 65 4.3 E 7 9 4 5 1013.0 - 0.0
29/07:00pm 24.3 24.5 15.8 59 5.2 E 9 11 5 6 1012.7 - 0.0
29/06:30pm 25.2 25.1 14.9 52 6.2 ENE 9 15 5 8 1012.1 - 0.0
29/06:00pm 26.2 25.4 14.0 47 7.2 ENE 11 17 6 9 1011.9 1011.8 0.0
29/05:30pm 26.8 25.1 13.5 44 7.9 ENE 15 22 8 12 1011.5 - 0.0
29/05:00pm 27.1 25.2 13.1 42 8.2 ENE 15 24 8 13 1011.4 - 0.0
29/04:30pm 27.2 24.2 10.8 36 9.3 ENE 17 26 9 14 1011.4 - 0.0
29/04:00pm 28.2 24.5 9.5 31 10.4 NE 19 28 10 15 1011.3 - 0.0
29/03:30pm 28.6 25.0 9.8 31 10.5 NE 19 26 10 14 1011.3 - 0.0
29/03:00pm 29.0 25.6 10.6 32 10.5 NE 19 26 10 14 1011.4 1011.3 0.0
29/02:30pm 28.2 25.0 11.3 35 9.7 NE 19 28 10 15 1011.7 - 0.0
29/02:00pm 30.1 25.5 5.4 21 13.0 ENE 19 24 10 13 1012.0 - 0.0
29/01:30pm 30.8 25.9 5.3 20 13.4 NE 20 28 11 15 1012.4 - 0.0
29/01:00pm 31.3 26.5 5.7 20 13.6 NE 20 32 11 17 1012.9 - 0.0
29/12:30pm 30.8 26.6 3.8 18 13.8 E 15 26 8 14 1013.3 - 0.0
29/12:00pm 29.6 24.5 2.8 18 13.4 E 19 33 10 18 1013.8 1013.7 0.0
29/11:30am 30.2 24.0 -0.2 14 14.5 SE 22 33 12 18 1014.3 - 0.0
29/11:00am 29.9 24.5 1.4 16 13.9 ESE 19 33 10 18 1014.7 - 0.0
29/10:30am 28.6 22.6 1.2 17 13.2 ESE 22 32 12 17 1015.0 - 0.0
29/10:00am 27.7 21.0 3.4 21 12.1 SE 28 39 15 21 1015.3 - 0.0
29/09:30am 27.1 22.0 4.2 23 11.6 SE 20 28 11 15 1015.2 - 0.0
29/09:00am 24.9 20.6 7.1 32 9.3 SSE 19 24 10 13 1015.1 1015.0 0.0
29/08:30am 23.5 20.2 9.5 41 7.6 SE 17 22 9 12 1014.9 - 0.0
29/08:00am 21.2 18.2 10.7 51 5.8 SSE 17 22 9 12 1014.7 - 0.0
29/07:30am 17.8 16.8 13.5 76 2.4 SSE 11 13 6 7 1014.7 - 0.0
29/07:00am 16.1 15.3 13.9 87 1.2 S 11 15 6 8 1014.5 - 0.0
29/06:30am 15.3 14.2 13.1 87 1.2 S 11 15 6 8 1014.4 - 0.0
29/06:00am 14.9 14.0 12.6 86 1.3 SSE 9 9 5 5 1014.1 1014.0 0.0
29/05:30am 15.4 15.0 12.9 85 1.4 SE 7 9 4 5 1013.9 - 0.0
29/05:00am 15.5 14.9 12.3 81 1.8 SSE 7 7 4 4 1013.7 - 0.0
29/04:30am 16.1 15.6 12.1 77 2.2 SE 6 7 3 4 1013.7 - 0.0
29/04:00am 17.7 17.1 12.4 71 2.9 ESE 7 9 4 5 1013.5 - 0.0
29/03:30am 18.5 16.8 12.5 68 3.3 SSE 13 17 7 9 1013.2 - 0.0
29/03:00am 19.5 17.0 12.3 63 4.0 SSE 17 22 9 12 1013.0 1012.9 0.0
29/02:30am 18.9 16.6 11.7 63 4.0 SSE 15 19 8 10 1013.1 - 0.0
29/02:00am 20.1 17.8 11.8 59 4.6 SSE 15 19 8 10 1013.1 - 0.0
29/01:30am 20.5 18.0 11.2 55 5.1 SSE 15 20 8 11 1013.3 - 0.0
29/01:00am 20.8 18.7 11.2 54 5.3 SSE 13 15 7 8 1013.8 - 0.0
29/12:30am 20.9 18.4 9.8 49 6.0 SSE 13 17 7 9 1013.8 - 0.0
29/12:00am 22.0 18.7 9.5 45 6.7 SSE 17 22 9 12 1014.0 1013.9 0.0
 
Date/Time
CST
Temp
°C
App
Temp
°C
Dew
Point
Rel
Hum
%
Delta-T
°C
Wind Press
QNH
hPa
Press
MSL
hPa
Rain
since 9 am
mm
Dir
 
Spd
km/h
Gust
km/h
Spd
kts
Gust
kts
28/11:30pm 22.2 18.1 8.0 40 7.4 SE 19 22 10 12 1014.2 - 0.0
28/11:00pm 23.3 18.9 7.4 36 8.3 SE 20 26 11 14 1014.0 - 0.0
28/10:30pm 24.0 19.5 6.3 32 9.1 SE 19 28 10 15 1014.2 - 0.0
28/10:00pm 24.0 19.4 5.4 30 9.4 ESE 19 24 10 13 1014.0 - 0.0
28/09:30pm 24.3 20.3 6.6 32 9.2 ESE 17 22 9 12 1014.1 - 0.0
28/09:00pm 24.0 20.6 9.2 39 8.0 ESE 17 20 9 11 1013.8 1013.7 0.0
28/08:30pm 22.6 22.5 15.0 62 4.5 ESE 9 13 5 7 1013.6 - 0.0
28/08:00pm 22.3 23.0 16.1 68 3.7 ESE 7 9 4 5 1013.1 - 0.0
28/07:30pm 23.4 24.3 16.2 64 4.4 E 6 7 3 4 1013.0 - 0.0
28/07:00pm 24.7 25.1 16.4 60 5.1 E 9 11 5 6 1012.5 - 0.0
28/06:30pm 25.6 26.0 16.2 56 5.8 E 9 17 5 9 1012.3 - 0.0
28/06:00pm 26.6 25.9 15.3 50 6.9 ENE 13 20 7 11 1011.9 1011.8 0.0
28/05:30pm 27.6 26.0 13.9 43 8.2 ENE 15 22 8 12 1011.7 - 0.0
28/05:00pm 28.3 26.3 13.8 41 8.7 ENE 17 22 9 12 1011.4 - 0.0
28/04:30pm 28.7 27.1 13.8 40 8.9 ENE 15 24 8 13 1011.2 - 0.0
28/04:00pm 28.6 26.3 12.9 38 9.2 NE 17 22 9 12 1011.3 - 0.0
28/03:30pm 29.1 26.3 12.5 36 9.7 NE 19 26 10 14 1011.2 - 0.0
28/03:00pm 31.9 27.4 6.9 21 13.6 ESE 20 33 11 18 1011.0 1010.9 0.0
28/02:30pm 31.2 26.6 6.3 21 13.3 ESE 20 30 11 16 1011.4 - 0.0
28/02:00pm 31.3 25.9 6.4 21 13.4 ESE 24 37 13 20 1011.8 - 0.0
28/01:30pm 30.6 25.4 7.1 23 12.7 E 24 35 13 19 1012.2 - 0.0
28/01:00pm 31.0 25.5 7.5 23 12.8 SE 26 35 14 19 1012.7 - 0.0
28/12:30pm 30.8 26.1 6.0 21 13.2 ESE 20 33 11 18 1013.3 - 0.0
28/12:00pm 29.7 23.9 6.4 23 12.4 SE 26 35 14 19 1013.7 1013.6 0.0
28/11:30am 28.6 22.4 6.1 24 11.8 ESE 28 43 15 23 1014.0 - 0.0
28/11:00am 28.6 23.0 5.5 23 12.0 SE 24 35 13 19 1014.4 - 0.0
28/10:30am 27.8 20.9 4.8 23 11.8 SE 30 43 16 23 1014.7 - 0.0
28/10:00am 26.5 20.4 6.5 28 10.5 SE 28 37 15 20 1014.9 - 0.0
28/09:45am 26.5 20.3 6.0 27 10.6 SE 28 46 15 25 1015.0 - 0.0
28/09:30am 25.5 21.4 8.5 34 9.2 SE 20 30 11 16 1015.2 - 0.0
28/09:00am 23.9 20.5 10.6 43 7.4 SE 19 24 10 13 1015.1 1015.0 0.0
28/08:30am 22.2 19.3 11.0 49 6.2 SSE 17 26 9 14 1015.0 - 0.0
28/08:00am 19.8 17.8 12.6 63 4.1 SSE 15 20 8 11 1014.8 - 0.0
28/07:30am 17.4 15.8 12.7 74 2.6 SSE 13 19 7 10 1014.6 - 0.0
28/07:00am 14.9 13.9 12.4 85 1.4 S 9 11 5 6 1014.5 - 0.0
28/06:30am 14.8 13.7 12.1 84 1.5 S 9 15 5 8 1014.2 - 0.0
28/06:00am 16.8 15.1 12.5 76 2.4 SSE 13 17 7 9 1013.9 1013.8 0.0
28/05:30am 16.4 14.8 12.8 79 2.0 SSE 13 17 7 9 1013.6 - 0.0
28/05:00am 17.2 15.7 13.1 77 2.3 SSE 13 19 7 10 1013.3 - 0.0
28/04:30am 16.5 14.8 12.5 77 2.2 SSE 13 15 7 8 1013.6 - 0.0
28/04:00am 17.1 14.9 12.2 73 2.7 SE 15 17 8 9 1013.6 - 0.0
28/03:30am 17.3 15.1 12.2 72 2.8 SSE 15 17 8 9 1013.6 - 0.0
28/03:00am 18.7 17.0 12.5 67 3.5 SSE 13 17 7 9 1013.5 1013.4 0.0
28/02:30am 18.4 16.9 11.9 66 3.6 SSE 11 13 6 7 1013.6 - 0.0
28/02:00am 19.2 17.4 12.2 64 3.9 SSE 13 15 7 8 1013.8 - 0.0
28/01:30am 19.7 17.5 12.0 61 4.3 SSE 15 19 8 10 1014.0 - 0.0
28/01:00am 20.8 18.6 12.2 58 4.8 SSE 15 20 8 11 1014.3 - 0.0
28/12:30am 21.6 18.5 12.2 55 5.3 SSE 20 28 11 15 1014.4 - 0.0
28/12:00am 22.4 19.4 12.1 52 5.8 SE 19 24 10 13 1014.7 1014.6 0.0
 
Date/Time
CST
Temp
°C
App
Temp
°C
Dew
Point
Rel
Hum
%
Delta-T
°C
Wind Press
QNH
hPa
Press
MSL
hPa
Rain
since 9 am
mm
Dir
 
Spd
km/h
Gust
km/h
Spd
kts
Gust
kts
27/11:30pm 22.6 19.4 11.4 49 6.3 SE 19 24 10 13 1014.7 - 0.0
27/11:00pm 23.4 19.8 10.5 44 7.1 SE 20 26 11 14 1014.6 - 0.0
27/10:30pm 24.0 19.4 9.6 40 7.9 SE 24 33 13 18 1014.5 - 0.0
27/10:00pm 24.7 20.5 9.8 39 8.2 SE 22 30 12 16 1014.4 - 0.0
27/09:30pm 25.1 21.1 9.0 36 8.7 SE 20 30 11 16 1014.1 - 0.0
27/09:00pm 25.5 21.4 8.5 34 9.2 SE 20 28 11 15 1013.8 1013.7 0.0
27/08:30pm 25.9 22.0 8.8 34 9.3 ESE 19 26 10 14 1013.4 - 0.0
27/08:00pm 26.1 22.8 9.4 35 9.2 ESE 17 24 9 13 1013.0 - 0.0
27/07:30pm 26.3 23.4 10.9 38 8.7 ESE 17 22 9 12 1012.4 - 0.0
27/07:00pm 25.9 25.1 15.0 51 6.6 ESE 13 19 7 10 1012.0 - 0.0
27/06:30pm 25.5 26.8 18.4 65 4.5 E 9 11 5 6 1011.5 - 0.0
27/06:00pm 26.4 26.7 18.0 60 5.3 E 13 19 7 10 1011.2 1011.1 0.0
27/05:30pm 27.2 26.5 17.4 55 6.2 ENE 17 26 9 14 1011.0 - 0.0
27/05:00pm 27.6 25.9 16.2 49 7.0 NE 20 30 11 16 1010.8 - 0.0
27/04:30pm 28.1 26.1 15.4 46 7.8 ENE 20 32 11 17 1010.8 - 0.0
27/04:00pm 28.6 26.3 14.1 41 8.7 ENE 19 32 10 17 1010.7 - 0.0
27/03:30pm 29.2 26.1 12.2 35 9.9 NE 20 28 11 15 1010.6 - 0.0
27/03:00pm 32.4 28.3 8.0 22 13.5 E 19 32 10 17 1010.6 1010.5 0.0
27/02:30pm 31.7 27.3 7.4 22 13.3 ESE 20 30 11 16 1010.7 - 0.0
27/02:00pm 32.2 27.9 7.1 21 13.7 E 19 33 10 18 1011.2 - 0.0
27/01:30pm 32.1 27.4 7.7 22 13.4 E 22 33 12 18 1011.7 - 0.0
27/01:00pm 30.9 26.0 6.7 22 13.0 ESE 22 33 12 18 1012.2 - 0.0
27/12:30pm 31.1 24.5 6.2 21 13.3 SE 30 43 16 23 1012.6 - 0.0
27/12:00pm 31.2 26.0 5.6 20 13.6 ESE 22 39 12 21 1012.8 1012.7 0.0

Other Formats:

Comma delimited format used in spreadsheet applications
http://www.bom.gov.au/fwo/IDD60801/IDD60801.95142.axf

JavaScript Object Notation format (JSON) in row-major order
http://www.bom.gov.au/fwo/IDD60801/IDD60801.95142.json